createdAt,value
2022-12-19T00:01:18.739Z,25.60
2022-12-19T00:03:57.150Z,26.27
2022-12-19T00:06:25.006Z,22.80
2022-12-19T00:08:53.230Z,30.37
2022-12-19T00:11:22.518Z,22.47
2022-12-19T00:13:49.232Z,21.90
2022-12-19T00:16:19.747Z,21.90
2022-12-19T00:18:47.738Z,23.23
2022-12-19T00:21:16.885Z,26.17
2022-12-19T00:23:44.133Z,22.67
2022-12-19T00:26:17.087Z,27.47
2022-12-19T00:28:46.216Z,27.50
2022-12-19T00:31:13.586Z,23.30
2022-12-19T00:33:43.352Z,21.20
2022-12-19T00:36:13.232Z,19.27
2022-12-19T00:38:40.061Z,21.30
2022-12-19T00:41:08.673Z,19.80
2022-12-19T00:43:35.430Z,24.90
2022-12-19T00:46:07.854Z,24.23
2022-12-19T00:48:35.247Z,26.50
2022-12-19T00:51:11.132Z,29.13
2022-12-19T00:53:37.863Z,33.90
2022-12-19T00:56:06.800Z,20.67
2022-12-19T00:58:35.610Z,27.17
2022-12-19T01:01:10.662Z,26.10
2022-12-19T01:03:37.351Z,26.03
2022-12-19T01:06:04.588Z,20.27
2022-12-19T01:08:31.976Z,27.70
2022-12-19T01:10:58.852Z,22.17
2022-12-19T01:13:27.660Z,23.80
2022-12-19T01:15:54.289Z,26.07
2022-12-19T01:18:21.046Z,25.60
2022-12-19T01:20:48.031Z,21.60
2022-12-19T01:23:17.729Z,24.97
2022-12-19T01:25:52.217Z,24.20
2022-12-19T01:28:18.880Z,20.77
2022-12-19T01:30:46.325Z,24.23
2022-12-19T01:33:16.838Z,23.30
2022-12-19T01:35:45.245Z,25.20
2022-12-19T01:38:17.346Z,21.57
2022-12-19T01:40:52.537Z,26.43
2022-12-19T01:43:19.571Z,22.00
2022-12-19T01:45:49.612Z,28.83
2022-12-19T01:48:24.416Z,21.97
2022-12-19T01:51:13.942Z,21.87
2022-12-19T01:53:50.330Z,24.03
2022-12-19T01:56:22.658Z,27.30
2022-12-19T01:58:54.796Z,21.57
2022-12-19T02:01:33.034Z,20.30
2022-12-19T02:04:03.160Z,19.93
2022-12-19T02:06:31.308Z,27.80
2022-12-19T02:08:58.181Z,21.60
2022-12-19T02:11:24.816Z,21.90
2022-12-19T02:13:51.756Z,20.83
2022-12-19T02:16:38.185Z,21.67
2022-12-19T02:19:14.889Z,21.53
2022-12-19T02:22:03.477Z,23.30
2022-12-19T02:24:43.314Z,20.80
2022-12-19T02:27:43.717Z,27.70
2022-12-19T02:30:14.611Z,24.20
2022-12-19T02:32:56.205Z,21.50
2022-12-19T02:35:39.987Z,17.53
2022-12-19T02:38:18.687Z,20.57
2022-12-19T02:41:43.107Z,24.07
2022-12-19T02:44:23.304Z,23.07
2022-12-19T02:46:51.739Z,22.40
2022-12-19T02:49:20.670Z,20.10
2022-12-19T02:51:52.932Z,22.50
2022-12-19T02:54:20.024Z,25.77
2022-12-19T02:57:20.512Z,19.70
2022-12-19T02:59:56.859Z,20.03
2022-12-19T03:02:37.951Z,20.67
2022-12-19T03:05:15.132Z,19.13
2022-12-19T03:07:54.563Z,24.43
2022-12-19T03:10:43.306Z,25.13
2022-12-19T03:13:28.018Z,22.07
2022-12-19T03:15:54.942Z,23.13
2022-12-19T03:18:21.808Z,22.47
2022-12-19T03:20:54.149Z,20.97
2022-12-19T03:23:21.397Z,20.53
2022-12-19T03:25:52.342Z,18.90
2022-12-19T03:28:30.795Z,19.77
2022-12-19T03:30:59.180Z,16.23
2022-12-19T03:33:27.610Z,22.20
2022-12-19T03:35:56.312Z,20.23
2022-12-19T03:38:23.007Z,17.97
2022-12-19T03:40:50.782Z,25.20
2022-12-19T03:43:18.547Z,18.87
2022-12-19T03:45:55.418Z,21.57
2022-12-19T03:48:43.195Z,24.60
2022-12-19T03:51:20.068Z,15.83
2022-12-19T03:54:10.768Z,21.17
2022-12-19T03:56:56.393Z,23.87
2022-12-19T03:59:39.454Z,27.07
2022-12-19T04:02:07.414Z,33.93
2022-12-19T04:04:38.706Z,30.87
2022-12-19T04:07:07.013Z,19.10
2022-12-19T04:09:35.225Z,28.10
2022-12-19T04:12:08.650Z,20.13
2022-12-19T04:14:37.516Z,18.07
2022-12-19T04:17:24.062Z,21.27
2022-12-19T04:20:08.159Z,17.03
2022-12-19T04:22:49.615Z,19.60
2022-12-19T04:25:23.998Z,25.33
2022-12-19T04:28:00.295Z,18.73
2022-12-19T04:30:27.451Z,22.40
2022-12-19T04:32:55.001Z,20.70
2022-12-19T04:35:21.682Z,20.47
2022-12-19T04:37:48.313Z,26.13
2022-12-19T04:40:15.084Z,22.97
2022-12-19T04:42:41.706Z,24.83
2022-12-19T04:45:09.371Z,20.53
2022-12-19T04:47:36.347Z,18.97
2022-12-19T04:50:03.544Z,19.10
2022-12-19T04:52:30.126Z,23.07
2022-12-19T04:54:56.822Z,21.80
2022-12-19T04:57:23.469Z,20.30
2022-12-19T04:59:50.064Z,22.13
2022-12-19T05:02:16.767Z,24.30
2022-12-19T05:04:43.451Z,16.03
2022-12-19T05:07:10.061Z,25.03
2022-12-19T05:09:36.643Z,26.03
2022-12-19T05:12:03.372Z,26.03
2022-12-19T05:14:29.985Z,20.63
2022-12-19T05:17:01.261Z,19.30
2022-12-19T05:19:28.704Z,16.13
2022-12-19T05:21:55.346Z,23.20
2022-12-19T05:24:22.197Z,20.50
2022-12-19T05:26:49.375Z,24.20
2022-12-19T05:29:17.176Z,19.87
2022-12-19T05:31:43.941Z,26.60
2022-12-19T05:34:10.875Z,22.60
2022-12-19T05:36:37.595Z,20.77
2022-12-19T05:39:04.280Z,24.17
2022-12-19T05:41:30.999Z,23.00
2022-12-19T05:43:57.739Z,27.17
2022-12-19T05:46:25.300Z,20.33
2022-12-19T05:48:53.193Z,24.13
2022-12-19T05:51:20.860Z,23.33
2022-12-19T05:53:47.624Z,23.37
2022-12-19T05:56:19.482Z,22.67
2022-12-19T05:58:46.834Z,24.93
2022-12-19T06:01:14.958Z,19.60
2022-12-19T06:03:42.404Z,22.60
2022-12-19T06:06:15.023Z,23.00
2022-12-19T06:08:42.013Z,19.03
2022-12-19T06:11:10.273Z,19.57
2022-12-19T06:13:37.794Z,20.97
2022-12-19T06:16:07.147Z,18.73
2022-12-19T06:18:34.670Z,20.83
2022-12-19T06:21:04.588Z,19.77
2022-12-19T06:23:34.782Z,19.57
2022-12-19T06:26:03.460Z,21.90
2022-12-19T06:28:31.393Z,19.70
2022-12-19T06:30:59.395Z,24.83
2022-12-19T06:33:26.915Z,20.97
2022-12-19T06:36:14.238Z,23.40
2022-12-19T06:38:40.864Z,16.63
2022-12-19T06:41:27.690Z,28.30
2022-12-19T06:43:58.034Z,34.20
2022-12-19T06:46:24.885Z,24.47
2022-12-19T06:48:51.684Z,23.90
2022-12-19T06:51:18.896Z,27.03
2022-12-19T06:53:45.506Z,19.13
2022-12-19T06:56:14.107Z,17.03
2022-12-19T06:58:41.168Z,22.80
2022-12-19T07:01:08.092Z,20.13
2022-12-19T07:03:40.436Z,19.20
2022-12-19T07:06:07.877Z,18.50
2022-12-19T07:08:34.494Z,19.63
2022-12-19T07:11:01.166Z,23.20
2022-12-19T07:13:27.916Z,17.73
2022-12-19T07:15:58.400Z,21.33
2022-12-19T07:18:25.200Z,25.07
2022-12-19T07:20:52.239Z,21.30
2022-12-19T07:23:21.406Z,21.93
2022-12-19T07:25:48.095Z,23.17
2022-12-19T07:28:15.913Z,26.33
2022-12-19T07:30:42.607Z,18.23
2022-12-19T07:33:11.491Z,27.17
2022-12-19T07:35:38.915Z,18.67
2022-12-19T07:38:07.163Z,22.97
2022-12-19T07:40:35.179Z,19.50
2022-12-19T07:43:03.960Z,23.50
2022-12-19T07:45:30.739Z,17.63
2022-12-19T07:48:01.173Z,20.53
2022-12-19T07:50:28.673Z,29.77
2022-12-19T07:52:55.396Z,24.53
2022-12-19T07:55:22.070Z,20.83
2022-12-19T07:57:48.735Z,20.97
2022-12-19T08:00:15.693Z,20.43
2022-12-19T08:02:43.238Z,26.13
2022-12-19T08:05:11.466Z,21.10
2022-12-19T08:07:38.105Z,23.57
2022-12-19T08:10:06.893Z,26.17
2022-12-19T08:12:34.186Z,28.60
2022-12-19T08:15:00.889Z,20.10
2022-12-19T08:17:27.553Z,23.00
2022-12-19T08:19:54.296Z,17.13
2022-12-19T08:22:20.884Z,25.07
2022-12-19T08:24:47.624Z,21.97
2022-12-19T08:27:16.907Z,24.23
2022-12-19T08:29:43.635Z,22.70
2022-12-19T08:32:11.605Z,23.60
2022-12-19T08:34:41.006Z,21.07
2022-12-19T08:37:08.747Z,22.30
2022-12-19T08:39:35.385Z,29.10
2022-12-19T08:42:01.993Z,24.47
2022-12-19T08:44:28.631Z,24.67
2022-12-19T08:46:55.301Z,21.03
2022-12-19T08:49:21.952Z,25.70
2022-12-19T08:51:48.604Z,25.83
2022-12-19T08:54:15.567Z,27.50
2022-12-19T08:56:46.680Z,21.00
2022-12-19T08:59:15.857Z,36.03
2022-12-19T09:01:48.008Z,22.80
2022-12-19T09:05:28.871Z,23.43
2022-12-19T09:07:01.704Z,21.80
2022-12-19T09:09:28.650Z,27.43
2022-12-19T09:11:55.228Z,26.40
2022-12-19T09:14:21.868Z,22.20
2022-12-19T09:16:49.113Z,34.53
2022-12-19T09:19:16.514Z,27.63
2022-12-19T09:21:43.659Z,26.60
2022-12-19T09:24:10.811Z,27.33
2022-12-19T09:26:39.300Z,25.37
2022-12-19T09:29:10.395Z,31.63
2022-12-19T09:31:47.143Z,26.37
2022-12-19T09:34:13.964Z,28.20
2022-12-19T09:36:40.577Z,25.77
2022-12-19T09:39:07.197Z,21.17
2022-12-19T09:42:07.647Z,27.87
2022-12-19T09:44:54.606Z,28.90
2022-12-19T09:47:28.493Z,23.43
2022-12-19T09:49:55.305Z,22.90
2022-12-19T09:52:35.066Z,27.00
2022-12-19T09:55:33.154Z,25.87
2022-12-19T09:58:34.627Z,38.20
2022-12-19T10:01:08.072Z,23.17
2022-12-19T10:03:46.701Z,30.43
2022-12-19T10:07:11.127Z,26.03
2022-12-19T10:10:35.842Z,32.63
2022-12-19T10:12:43.723Z,33.13
2022-12-19T10:15:14.638Z,21.50
2022-12-19T10:18:19.557Z,29.23
2022-12-19T10:21:01.559Z,25.67
2022-12-19T10:24:06.472Z,20.40
2022-12-19T10:26:46.447Z,24.17
2022-12-19T10:29:24.440Z,18.37
2022-12-19T10:32:08.196Z,22.30
2022-12-19T10:34:41.793Z,21.30
2022-12-19T10:37:40.961Z,26.83
2022-12-19T10:40:27.367Z,18.80
2022-12-19T10:43:15.309Z,22.00
2022-12-19T10:45:50.644Z,23.80
2022-12-19T10:48:22.428Z,24.00
2022-12-19T10:50:58.097Z,27.30
2022-12-19T10:53:32.092Z,26.83
2022-12-19T10:56:12.185Z,24.77
2022-12-19T10:58:43.731Z,23.80
2022-12-19T11:01:12.069Z,24.37
2022-12-19T11:03:41.856Z,29.63
2022-12-19T11:06:37.565Z,24.10
2022-12-19T11:09:29.636Z,27.17
2022-12-19T11:15:31.398Z,25.40
2022-12-19T11:22:40.074Z,21.77
2022-12-19T11:29:15.548Z,24.67
2022-12-19T11:29:30.012Z,24.13
2022-12-19T11:29:44.792Z,26.60
2022-12-19T11:30:25.886Z,22.50
2022-12-19T11:32:42.247Z,24.10
2022-12-19T11:35:18.578Z,27.57
2022-12-19T11:37:58.258Z,24.37
2022-12-19T11:40:44.712Z,22.00
2022-12-19T11:43:44.982Z,21.97
2022-12-19T11:46:23.038Z,23.03
2022-12-19T11:49:19.409Z,22.87
2022-12-19T11:52:54.111Z,20.70
2022-12-19T11:55:16.975Z,27.43
2022-12-19T11:57:44.131Z,24.20
2022-12-19T12:00:18.203Z,22.37
2022-12-19T12:02:50.818Z,24.30
2022-12-19T12:05:41.741Z,27.20
2022-12-19T12:09:32.042Z,29.23
2022-12-19T12:16:46.654Z,25.13
2022-12-19T12:24:18.808Z,33.00
2022-12-19T12:28:46.107Z,33.50
2022-12-19T12:31:17.059Z,27.23
2022-12-19T12:31:40.562Z,29.27
2022-12-19T12:31:52.923Z,36.80
2022-12-19T12:31:58.821Z,34.63
2022-12-19T12:35:56.635Z,31.97
2022-12-19T12:40:24.021Z,24.80
2022-12-19T12:43:17.840Z,32.07
2022-12-19T12:45:45.416Z,25.50
2022-12-19T12:48:26.619Z,24.90
2022-12-19T12:50:55.595Z,24.37
2022-12-19T12:53:26.966Z,24.60
2022-12-19T12:55:56.926Z,21.87
2022-12-19T12:58:43.132Z,22.13
2022-12-19T13:01:32.456Z,21.73
2022-12-19T13:04:10.363Z,29.40
2022-12-19T13:06:40.715Z,24.20
2022-12-19T13:09:25.815Z,26.57
2022-12-19T13:12:39.849Z,22.00
2022-12-19T13:15:31.603Z,28.33
2022-12-19T13:18:07.763Z,30.50
2022-12-19T13:20:42.998Z,21.77
2022-12-19T13:23:33.515Z,27.63
2022-12-19T13:26:00.169Z,38.97
2022-12-19T13:28:26.795Z,34.57
2022-12-19T13:31:20.550Z,23.20
2022-12-19T13:33:51.875Z,27.43
2022-12-19T13:39:51.796Z,22.63
2022-12-19T13:39:59.029Z,23.87
2022-12-19T13:42:45.547Z,24.30
2022-12-19T13:45:25.442Z,24.60
2022-12-19T13:47:54.464Z,22.13
2022-12-19T13:50:36.003Z,23.77
2022-12-19T13:53:02.863Z,26.20
2022-12-19T13:55:29.892Z,22.20
2022-12-19T13:57:57.645Z,24.63
2022-12-19T14:00:41.494Z,21.73
2022-12-19T14:03:18.121Z,38.43
2022-12-19T14:06:16.376Z,37.27
2022-12-19T14:08:31.669Z,35.37
2022-12-19T14:11:41.107Z,30.20
2022-12-19T14:14:22.171Z,31.60
2022-12-19T14:16:56.206Z,24.20
2022-12-19T14:19:28.849Z,23.23
2022-12-19T14:22:30.124Z,30.13
2022-12-19T14:28:17.124Z,27.40
2022-12-19T14:28:19.581Z,29.00
2022-12-19T14:30:53.476Z,33.63
2022-12-19T14:33:46.858Z,27.80
2022-12-19T14:36:26.618Z,29.90
2022-12-19T14:39:23.551Z,23.90
2022-12-19T14:42:02.885Z,27.73
2022-12-19T14:51:51.470Z,30.50
2022-12-19T14:52:35.249Z,23.40
2022-12-19T14:54:03.587Z,29.37
2022-12-19T14:54:41.629Z,25.17
2022-12-19T14:59:01.472Z,26.97
2022-12-19T15:01:32.209Z,28.10
2022-12-19T15:04:52.361Z,27.00
2022-12-19T15:07:12.319Z,22.20
2022-12-19T15:11:10.666Z,27.00
2022-12-19T15:14:47.699Z,27.00
2022-12-19T15:16:01.498Z,29.27
2022-12-19T15:18:39.245Z,28.23
2022-12-19T15:21:10.591Z,24.97
2022-12-19T15:23:37.175Z,26.23
2022-12-19T15:26:11.010Z,36.43
2022-12-19T15:28:43.838Z,21.37
2022-12-19T15:31:30.439Z,24.90
2022-12-19T15:34:33.097Z,22.10
2022-12-19T15:36:44.174Z,26.10
2022-12-19T15:39:10.798Z,25.43
2022-12-19T15:41:37.428Z,29.10
2022-12-19T15:44:16.269Z,25.43
2022-12-19T15:46:48.348Z,21.87
2022-12-19T15:49:17.632Z,22.03
2022-12-19T15:51:45.173Z,23.33
2022-12-19T15:56:58.656Z,24.00
2022-12-19T15:59:34.712Z,27.63
2022-12-19T16:02:12.777Z,21.90
2022-12-19T16:04:39.725Z,23.70
2022-12-19T16:07:31.573Z,21.97
2022-12-19T16:09:58.229Z,25.60
2022-12-19T16:12:37.444Z,23.33
2022-12-19T16:15:04.577Z,21.67
2022-12-19T16:17:32.802Z,25.27
2022-12-19T16:19:59.447Z,26.57
2022-12-19T16:22:27.992Z,27.30
2022-12-19T16:24:55.459Z,24.57
2022-12-19T16:27:27.689Z,27.00
2022-12-19T16:29:55.376Z,24.00
2022-12-19T16:32:24.192Z,29.40
2022-12-19T16:34:52.360Z,25.17
2022-12-19T16:37:19.026Z,23.23
2022-12-19T16:39:45.613Z,23.03
2022-12-19T16:42:16.624Z,28.50
2022-12-19T16:44:47.885Z,27.77
2022-12-19T16:47:17.254Z,31.43
2022-12-19T16:49:44.844Z,23.13
2022-12-19T16:52:11.677Z,29.30
2022-12-19T16:54:38.324Z,23.70
2022-12-19T16:57:07.070Z,27.80
2022-12-19T16:59:37.094Z,19.80
2022-12-19T17:02:40.430Z,30.50
2022-12-19T17:05:13.994Z,28.67
2022-12-19T17:07:40.746Z,21.73
2022-12-19T17:10:07.755Z,22.53
2022-12-19T17:12:34.417Z,25.10
2022-12-19T17:15:01.442Z,23.20
2022-12-19T17:17:28.604Z,21.93
2022-12-19T17:19:55.256Z,18.97
2022-12-19T17:22:21.882Z,21.40
2022-12-19T17:24:49.189Z,27.40
2022-12-19T17:27:17.391Z,21.20
2022-12-19T17:29:44.439Z,26.93
2022-12-19T17:32:23.213Z,18.73
2022-12-19T17:34:50.651Z,19.57
2022-12-19T17:37:17.478Z,22.10
2022-12-19T17:39:44.196Z,18.10
2022-12-19T17:42:21.643Z,22.00
2022-12-19T17:44:48.572Z,26.00
2022-12-19T17:47:16.703Z,26.27
2022-12-19T17:49:43.660Z,17.00
2022-12-19T17:52:16.302Z,16.63
2022-12-19T17:54:42.983Z,22.20
2022-12-19T17:57:15.275Z,17.37
2022-12-19T17:59:42.267Z,12.90
2022-12-19T18:02:24.555Z,14.03
2022-12-19T18:04:52.108Z,18.57
2022-12-19T18:07:19.267Z,15.97
2022-12-19T18:09:46.129Z,16.83
2022-12-19T18:12:13.067Z,21.23
2022-12-19T18:14:39.799Z,14.30
2022-12-19T18:17:06.524Z,16.27
2022-12-19T18:19:34.700Z,14.60
2022-12-19T18:22:01.485Z,13.10
2022-12-19T18:24:28.106Z,15.43
2022-12-19T18:26:55.869Z,19.03
2022-12-19T18:29:22.937Z,17.17
2022-12-19T18:31:51.126Z,15.53
2022-12-19T18:34:29.925Z,19.30
2022-12-19T18:36:56.698Z,15.23
2022-12-19T18:39:24.748Z,14.37
2022-12-19T18:41:51.930Z,20.83
2022-12-19T18:44:19.029Z,17.07
2022-12-19T18:46:46.199Z,14.67
2022-12-19T18:49:14.918Z,18.83
2022-12-19T18:51:41.922Z,9.60
2022-12-19T18:54:13.681Z,16.80
2022-12-19T18:56:40.409Z,19.60
2022-12-19T18:59:07.095Z,16.17
2022-12-19T19:01:36.525Z,16.03
2022-12-19T19:04:03.441Z,19.53
2022-12-19T19:06:35.682Z,19.60
2022-12-19T19:09:04.422Z,15.00
2022-12-19T19:11:31.042Z,15.40
2022-12-19T19:13:57.705Z,16.10
2022-12-19T19:16:26.912Z,15.47
2022-12-19T19:18:55.673Z,14.90
2022-12-19T19:21:26.095Z,11.37
2022-12-19T19:23:59.949Z,16.53
2022-12-19T19:26:26.601Z,16.37
2022-12-19T19:28:53.228Z,15.33
2022-12-19T19:31:23.276Z,13.70
2022-12-19T19:33:58.136Z,16.80
2022-12-19T19:36:29.601Z,17.07
2022-12-19T19:38:57.415Z,12.43
2022-12-19T19:41:29.576Z,13.40
2022-12-19T19:43:57.597Z,13.00
2022-12-19T19:46:24.409Z,14.27
2022-12-19T19:48:51.123Z,14.23
2022-12-19T19:51:18.266Z,15.37
2022-12-19T19:53:45.134Z,13.27
2022-12-19T19:56:11.811Z,11.57
2022-12-19T19:58:38.453Z,20.47
2022-12-19T20:01:10.219Z,16.13
2022-12-19T20:03:38.180Z,13.40
2022-12-19T20:06:05.499Z,13.00
2022-12-19T20:08:38.805Z,15.03
2022-12-19T20:11:06.117Z,16.10
2022-12-19T20:13:33.108Z,13.63
2022-12-19T20:16:08.584Z,16.23
2022-12-19T20:18:36.411Z,12.00
2022-12-19T20:21:05.598Z,20.20
2022-12-19T20:23:36.661Z,13.63
2022-12-19T20:26:04.829Z,10.40
2022-12-19T20:28:32.144Z,11.20
2022-12-19T20:30:59.488Z,12.00
2022-12-19T20:33:26.430Z,8.17
2022-12-19T20:35:57.019Z,13.87
2022-12-19T20:38:24.619Z,9.07
2022-12-19T20:40:55.941Z,18.43
2022-12-19T20:43:23.782Z,9.30
2022-12-19T20:45:50.738Z,14.20
2022-12-19T20:48:18.393Z,15.23
2022-12-19T20:50:45.032Z,10.63
2022-12-19T20:53:11.641Z,12.83
2022-12-19T20:55:38.350Z,8.20
2022-12-19T20:58:04.917Z,10.50
2022-12-19T21:00:31.584Z,9.60
2022-12-19T21:05:51.584Z,12.20
2022-12-19T21:08:18.180Z,17.47
2022-12-19T21:10:45.843Z,8.97
2022-12-19T21:13:12.504Z,14.70
2022-12-19T21:15:39.209Z,8.80
2022-12-19T21:18:05.940Z,10.20
2022-12-19T21:20:36.666Z,13.53
2022-12-19T21:23:03.622Z,8.77
2022-12-19T21:25:30.433Z,12.13
2022-12-19T21:27:57.035Z,9.60
2022-12-19T21:30:23.654Z,9.07
2022-12-19T21:32:50.283Z,11.90
2022-12-19T21:35:16.921Z,11.90
2022-12-19T21:37:49.807Z,12.03
2022-12-19T21:40:17.032Z,12.70
2022-12-19T21:42:44.013Z,7.03
2022-12-19T21:45:11.536Z,15.10
2022-12-19T21:47:39.990Z,12.60
2022-12-19T21:50:08.323Z,12.00
2022-12-19T21:52:34.958Z,10.80
2022-12-19T21:55:01.555Z,11.23
2022-12-19T21:57:28.175Z,14.60
2022-12-19T21:59:54.785Z,13.83
2022-12-19T22:02:21.492Z,16.97
2022-12-19T22:04:51.065Z,13.93
2022-12-19T22:07:17.743Z,11.00
2022-12-19T22:09:44.332Z,15.43
2022-12-19T22:12:12.866Z,13.17
2022-12-19T22:14:39.633Z,17.03
2022-12-19T22:17:06.307Z,13.17
2022-12-19T22:19:32.963Z,9.97
2022-12-19T22:21:59.574Z,9.77
2022-12-19T22:24:26.243Z,9.40
2022-12-19T22:26:52.971Z,16.90
2022-12-19T22:29:19.870Z,11.07
2022-12-19T22:31:47.225Z,12.23
2022-12-19T22:34:16.617Z,10.00
2022-12-19T22:36:43.906Z,9.03
2022-12-19T22:39:13.440Z,8.87
2022-12-19T22:41:40.698Z,17.33
2022-12-19T22:44:08.148Z,12.03
2022-12-19T22:46:37.148Z,10.70
2022-12-19T22:49:08.725Z,12.23
2022-12-19T22:51:36.412Z,13.50
2022-12-19T22:54:04.474Z,7.50
2022-12-19T22:56:33.025Z,12.27
2022-12-19T22:59:03.046Z,13.83
2022-12-19T23:01:32.456Z,12.43
2022-12-19T23:04:00.761Z,9.90
2022-12-19T23:06:31.062Z,9.53
2022-12-19T23:08:58.129Z,18.60
2022-12-19T23:11:29.923Z,9.27
2022-12-19T23:13:56.613Z,9.27
2022-12-19T23:16:23.309Z,10.03
2022-12-19T23:18:49.989Z,9.10
2022-12-19T23:21:19.401Z,10.47
2022-12-19T23:23:48.195Z,12.83
2022-12-19T23:26:37.215Z,8.90
2022-12-19T23:29:07.150Z,10.50
2022-12-19T23:31:34.014Z,9.97
2022-12-19T23:34:01.476Z,9.50
2022-12-19T23:37:08.258Z,13.73
2022-12-19T23:39:15.328Z,10.53
2022-12-19T23:41:42.244Z,9.50
2022-12-19T23:44:09.919Z,9.10
2022-12-19T23:46:37.852Z,11.70
2022-12-19T23:49:04.624Z,15.40
2022-12-19T23:51:31.861Z,8.13
2022-12-19T23:53:58.745Z,7.17
2022-12-19T23:56:28.547Z,8.47
2022-12-19T23:58:56.139Z,8.83
